createdAt,value
2019-04-01T00:04:22.536Z,59.30
2019-04-01T00:06:51.878Z,65.63
2019-04-01T00:09:21.233Z,63.67
2019-04-01T00:11:50.574Z,61.07
2019-04-01T00:14:19.905Z,59.23
2019-04-01T00:16:49.250Z,62.00
2019-04-01T00:19:18.588Z,64.03
2019-04-01T00:21:47.931Z,59.63
2019-04-01T00:24:17.262Z,61.03
2019-04-01T00:26:58.431Z,64.13
2019-04-01T00:29:28.023Z,62.30
2019-04-01T00:31:57.367Z,62.67
2019-04-01T00:34:45.789Z,62.00
2019-04-01T00:37:15.130Z,66.03
2019-04-01T00:39:44.460Z,60.40
2019-04-01T00:42:32.918Z,64.10
2019-04-01T00:45:02.314Z,60.77
2019-04-01T00:47:31.644Z,62.80
2019-04-01T00:50:01.060Z,63.50
2019-04-01T00:52:36.216Z,64.03
2019-04-01T00:55:11.899Z,59.90
2019-04-01T00:57:41.237Z,60.10
2019-04-01T01:00:10.712Z,58.17
2019-04-01T01:02:40.044Z,58.43
2019-04-01T01:05:09.374Z,61.70
2019-04-01T01:07:38.704Z,59.97
2019-04-01T01:10:47.954Z,59.23
2019-04-01T01:13:17.351Z,59.17
2019-04-01T01:15:46.694Z,58.20
2019-04-01T01:18:16.023Z,59.73
2019-04-01T01:20:45.539Z,58.60
2019-04-01T01:23:14.872Z,57.90
2019-04-01T01:26:03.305Z,54.50
2019-04-01T01:28:32.740Z,57.50
2019-04-01T01:31:02.058Z,55.67
2019-04-01T01:33:31.391Z,56.70
2019-04-01T01:36:00.723Z,55.57
2019-04-01T01:38:30.063Z,55.90
2019-04-01T01:40:59.395Z,54.87
2019-04-01T01:43:28.736Z,55.03
2019-04-01T01:45:58.066Z,55.07
2019-04-01T01:48:27.408Z,58.60
2019-04-01T01:50:56.738Z,54.13
2019-04-01T01:53:26.076Z,55.73
2019-04-01T01:55:55.406Z,58.73
2019-04-01T01:58:44.252Z,57.03
2019-04-01T02:01:13.589Z,55.17
2019-04-01T02:03:42.931Z,55.53
2019-04-01T02:06:12.260Z,55.27
2019-04-01T02:08:41.591Z,54.30
2019-04-01T02:11:10.935Z,54.97
2019-04-01T02:13:40.267Z,52.20
2019-04-01T02:16:09.607Z,52.30
2019-04-01T02:18:58.567Z,54.20
2019-04-01T02:21:27.909Z,55.67
2019-04-01T02:23:57.244Z,54.73
2019-04-01T02:26:26.582Z,54.70
2019-04-01T02:28:55.935Z,56.37
2019-04-01T02:31:26.911Z,56.37
2019-04-01T02:34:02.035Z,56.20
2019-04-01T02:36:31.372Z,53.33
2019-04-01T02:39:00.713Z,53.40
2019-04-01T02:41:30.049Z,53.80
2019-04-01T02:43:59.409Z,60.53
2019-04-01T02:46:28.730Z,61.77
2019-04-01T02:48:58.313Z,55.57
2019-04-01T02:51:27.656Z,55.70
2019-04-01T02:54:02.343Z,56.57
2019-04-01T02:56:31.695Z,56.73
2019-04-01T02:59:01.014Z,56.70
2019-04-01T03:01:30.358Z,56.87
2019-04-01T03:04:12.362Z,53.47
2019-04-01T03:06:42.005Z,55.07
2019-04-01T03:09:11.398Z,53.67
2019-04-01T03:11:40.745Z,58.43
2019-04-01T03:14:10.093Z,54.93
2019-04-01T03:16:39.429Z,56.57
2019-04-01T03:22:29.120Z,57.00
2019-04-01T03:24:58.474Z,60.17
2019-04-01T03:27:27.807Z,58.63
2019-04-01T03:29:57.140Z,58.23
2019-04-01T03:32:26.921Z,57.40
2019-04-01T03:34:56.234Z,58.63
2019-04-01T03:37:25.577Z,59.20
2019-04-01T03:39:54.915Z,58.53
2019-04-01T03:42:24.260Z,54.57
2019-04-01T03:44:55.232Z,57.90
2019-04-01T03:47:34.178Z,53.27
2019-04-01T03:50:03.916Z,57.30
2019-04-01T03:52:33.251Z,56.00
2019-04-01T03:55:21.933Z,59.57
2019-04-01T03:57:51.264Z,56.20
2019-04-01T04:00:20.606Z,59.60
2019-04-01T04:02:49.945Z,58.60
2019-04-01T04:05:19.284Z,55.73
2019-04-01T04:07:48.618Z,61.43
2019-04-01T04:10:17.968Z,56.87
2019-04-01T04:12:47.679Z,59.03
2019-04-01T04:15:17.332Z,56.33
2019-04-01T04:17:46.665Z,57.97
2019-04-01T04:20:28.629Z,59.87
2019-04-01T04:22:57.964Z,64.13
2019-04-01T04:25:27.393Z,63.63
2019-04-01T04:28:15.818Z,60.70
2019-04-01T04:30:45.161Z,57.80
2019-04-01T04:33:14.512Z,58.93
2019-04-01T04:35:43.861Z,58.70
2019-04-01T04:38:13.200Z,57.10
2019-04-01T04:40:42.542Z,61.43
2019-04-01T04:43:11.882Z,58.90
2019-04-01T04:46:00.343Z,59.42
2019-04-01T04:48:29.657Z,58.93
2019-04-01T04:51:00.866Z,60.80
2019-04-01T04:53:30.210Z,58.97
2019-04-01T04:56:04.731Z,59.40
2019-04-01T04:58:34.078Z,57.90
2019-04-01T05:01:03.427Z,59.00
2019-04-01T05:03:32.764Z,59.17
2019-04-01T05:06:02.108Z,57.80
2019-04-01T05:08:31.460Z,60.60
2019-04-01T05:11:00.792Z,64.87
2019-04-01T05:13:30.197Z,59.00
2019-04-01T05:15:59.557Z,61.75
2019-04-01T05:18:28.907Z,59.43
2019-04-01T05:21:38.155Z,60.73
2019-04-01T05:24:07.643Z,63.60
2019-04-01T05:36:02.093Z,61.87
2019-04-01T05:39:11.331Z,61.00
2019-04-01T05:42:00.107Z,63.00
2019-04-01T05:44:29.450Z,60.00
2019-04-01T05:50:13.908Z,60.60
2019-04-01T05:52:43.418Z,59.03
2019-04-01T05:55:12.826Z,55.90
2019-04-01T05:57:42.341Z,62.93
2019-04-01T06:00:51.829Z,62.13
2019-04-01T06:03:21.186Z,59.77
2019-04-01T06:05:50.512Z,64.77
2019-04-01T06:08:19.857Z,58.50
2019-04-01T06:10:49.194Z,60.00
2019-04-01T06:13:18.686Z,59.60
2019-04-01T06:15:48.022Z,66.00
2019-04-01T06:18:17.365Z,58.80
2019-04-01T06:21:26.606Z,58.00
2019-04-01T06:23:55.960Z,58.53
2019-04-01T06:26:25.298Z,63.20
2019-04-01T06:28:54.640Z,60.70
2019-04-01T06:31:24.046Z,60.80
2019-04-01T06:33:53.533Z,57.80
2019-04-01T06:36:42.031Z,56.90
2019-04-01T06:39:11.377Z,55.07
2019-04-01T06:41:40.720Z,55.00
2019-04-01T06:44:10.057Z,56.73
2019-04-01T06:46:39.740Z,58.33
2019-04-01T06:49:09.076Z,58.20
2019-04-01T06:51:38.428Z,58.60
2019-04-01T06:54:07.798Z,55.40
2019-04-01T06:56:37.101Z,56.57
2019-04-01T06:59:06.534Z,55.70
2019-04-01T07:01:35.945Z,57.23
2019-04-01T07:04:05.354Z,53.20
2019-04-01T07:06:34.836Z,55.00
2019-04-01T07:12:37.779Z,55.27
2019-04-01T07:18:09.020Z,56.90
2019-04-01T07:20:38.434Z,52.70
2019-04-01T07:23:07.904Z,55.47
2019-04-01T07:25:37.242Z,55.50
2019-04-01T07:28:06.583Z,55.57
2019-04-01T07:33:36.501Z,54.27
2019-04-01T07:36:05.896Z,58.70
2019-04-01T07:38:35.307Z,55.00
2019-04-01T07:41:04.771Z,53.33
2019-04-01T07:43:34.116Z,55.57
2019-04-01T07:46:22.794Z,56.10
2019-04-01T07:48:52.209Z,60.23
2019-04-01T07:57:44.298Z,55.03
2019-04-01T08:00:19.945Z,56.07
2019-04-01T08:02:49.353Z,59.53
2019-04-01T08:05:18.690Z,56.40
2019-04-01T08:07:48.164Z,57.63
2019-04-01T08:10:17.871Z,55.17
2019-04-01T08:12:47.205Z,54.77
2019-04-01T08:15:16.884Z,55.27
2019-04-01T08:17:46.231Z,55.33
2019-04-01T08:20:15.899Z,52.70
2019-04-01T08:22:45.241Z,51.87
2019-04-01T08:25:14.585Z,55.30
2019-04-01T08:27:43.933Z,60.63
2019-04-01T08:33:50.132Z,55.10
2019-04-01T08:36:23.590Z,56.80
2019-04-01T08:38:55.401Z,53.73
2019-04-01T08:44:52.269Z,54.97
2019-04-01T08:47:33.782Z,56.70
2019-04-01T08:50:43.035Z,57.33
2019-04-01T08:53:12.368Z,55.40
2019-04-01T08:55:41.714Z,54.13
2019-04-01T08:58:11.053Z,53.20
2019-04-01T09:00:40.580Z,54.63
2019-04-01T09:03:09.919Z,56.00
2019-04-01T09:05:39.802Z,52.67
2019-04-01T09:08:09.141Z,56.13
2019-04-01T09:10:38.759Z,54.40
2019-04-01T09:13:08.444Z,54.50
2019-04-01T09:15:38.059Z,56.20
2019-04-01T09:18:09.170Z,56.03
2019-04-01T09:20:38.521Z,55.93
2019-04-01T09:23:07.856Z,54.83
2019-04-01T09:25:37.206Z,53.27
2019-04-01T09:28:06.541Z,51.70
2019-04-01T09:30:35.947Z,53.03
2019-04-01T09:33:05.291Z,54.53
2019-04-01T09:35:34.626Z,53.77
2019-04-01T09:38:03.976Z,52.70
2019-04-01T09:40:33.317Z,52.53
2019-04-01T09:43:02.662Z,51.23
2019-04-01T09:45:31.996Z,52.10
2019-04-01T09:48:01.348Z,51.63
2019-04-01T09:50:30.685Z,53.30
2019-04-01T09:53:00.035Z,52.73
2019-04-01T09:55:29.376Z,50.50
2019-04-01T09:57:58.721Z,55.80
2019-04-01T10:00:28.064Z,51.33
2019-04-01T10:02:57.420Z,52.93
2019-04-01T10:05:26.756Z,49.50
2019-04-01T10:07:56.094Z,51.50
2019-04-01T10:10:25.445Z,51.50
2019-04-01T10:12:54.790Z,50.00
2019-04-01T10:15:24.504Z,50.50
2019-04-01T10:17:53.850Z,50.77
2019-04-01T10:20:23.196Z,51.33
2019-04-01T10:22:52.535Z,50.53
2019-04-01T10:25:21.886Z,52.20
2019-04-01T10:27:51.226Z,49.73
2019-04-01T10:30:21.010Z,49.93
2019-04-01T10:32:50.344Z,48.37
2019-04-01T10:35:20.071Z,48.17
2019-04-01T10:37:49.411Z,50.43
2019-04-01T10:40:18.826Z,48.83
2019-04-01T10:42:48.244Z,48.80
2019-04-01T10:45:17.921Z,47.17
2019-04-01T10:47:47.308Z,49.10
2019-04-01T10:50:16.770Z,48.83
2019-04-01T10:52:46.165Z,46.93
2019-04-01T10:55:16.027Z,49.30
2019-04-01T10:57:45.377Z,48.10
2019-04-01T11:00:15.176Z,45.97
2019-04-01T11:02:44.611Z,48.30
2019-04-01T11:05:14.008Z,48.13
2019-04-01T11:07:43.314Z,45.63
2019-04-01T11:10:12.992Z,48.07
2019-04-01T11:12:42.549Z,46.60
2019-04-01T11:15:15.341Z,47.17
2019-04-01T11:17:44.046Z,47.10
2019-04-01T11:20:13.825Z,45.43
2019-04-01T11:22:43.115Z,44.63
2019-04-01T11:25:12.687Z,44.73
2019-04-01T11:27:42.035Z,49.60
2019-04-01T11:30:13.953Z,47.93
2019-04-01T11:32:43.173Z,43.73
2019-04-01T11:35:12.615Z,46.07
2019-04-01T11:37:42.156Z,46.00
2019-04-01T11:40:12.821Z,44.73
2019-04-01T11:42:42.292Z,41.27
2019-04-01T11:45:11.904Z,42.73
2019-04-01T11:47:41.442Z,47.73
2019-04-01T11:50:11.365Z,47.23
2019-04-01T11:52:40.689Z,45.00
2019-04-01T11:55:10.240Z,44.60
2019-04-01T11:57:40.523Z,42.20
2019-04-01T12:00:13.556Z,44.30
2019-04-01T12:02:43.169Z,40.77
2019-04-01T12:05:12.579Z,40.17
2019-04-01T12:07:42.123Z,40.60
2019-04-01T12:10:12.913Z,39.43
2019-04-01T12:12:42.237Z,39.37
2019-04-01T12:15:12.696Z,40.50
2019-04-01T12:17:42.420Z,39.50
2019-04-01T12:20:11.877Z,40.97
2019-04-01T12:22:45.236Z,40.17
2019-04-01T12:25:12.391Z,41.60
2019-04-01T12:27:41.724Z,39.83
2019-04-01T12:30:12.833Z,40.33
2019-04-01T12:32:42.166Z,40.07
2019-04-01T12:35:11.564Z,37.30
2019-04-01T12:37:40.908Z,37.43
2019-04-01T12:40:10.386Z,40.60
2019-04-01T12:42:40.099Z,37.83
2019-04-01T12:45:10.996Z,40.60
2019-04-01T12:47:43.220Z,39.73
2019-04-01T12:50:12.207Z,37.10
2019-04-01T12:52:41.573Z,33.70
2019-04-01T12:55:11.034Z,35.30
2019-04-01T12:57:40.374Z,35.40
2019-04-01T13:00:11.754Z,35.60
2019-04-01T13:02:41.095Z,37.57
2019-04-01T13:05:11.166Z,36.20
2019-04-01T13:07:40.492Z,36.80
2019-04-01T13:10:10.175Z,36.20
2019-04-01T13:12:39.504Z,34.60
2019-04-01T13:15:09.586Z,35.37
2019-04-01T13:17:38.911Z,34.70
2019-04-01T13:20:08.606Z,37.03
2019-04-01T13:22:39.920Z,34.43
2019-04-01T13:25:09.403Z,36.77
2019-04-01T13:27:38.738Z,37.87
2019-04-01T13:30:08.699Z,34.97
2019-04-01T13:32:38.031Z,33.60
2019-04-01T13:35:07.740Z,34.57
2019-04-01T13:37:37.401Z,33.10
2019-04-01T13:40:07.769Z,34.30
2019-04-01T13:42:37.140Z,34.17
2019-04-01T13:45:06.821Z,33.40
2019-04-01T13:47:36.147Z,34.50
2019-04-01T13:50:06.542Z,34.93
2019-04-01T13:52:35.859Z,36.67
2019-04-01T13:55:06.243Z,34.80
2019-04-01T13:57:35.572Z,38.10
2019-04-01T14:00:06.656Z,37.33
2019-04-01T14:02:36.062Z,36.77
2019-04-01T14:05:06.641Z,33.40
2019-04-01T14:07:35.973Z,34.30
2019-04-01T14:10:08.779Z,34.23
2019-04-01T14:12:38.200Z,35.50
2019-04-01T14:15:08.373Z,33.00
2019-04-01T14:17:37.714Z,32.10
2019-04-01T14:20:07.486Z,33.23
2019-04-01T14:22:36.831Z,31.23
2019-04-01T14:25:07.857Z,32.40
2019-04-01T14:27:37.379Z,31.90
2019-04-01T14:30:07.569Z,32.27
2019-04-01T14:32:36.912Z,33.10
2019-04-01T14:35:07.289Z,31.70
2019-04-01T14:37:36.633Z,31.87
2019-04-01T14:40:08.639Z,33.60
2019-04-01T14:42:39.662Z,35.70
2019-04-01T14:45:10.229Z,35.50
2019-04-01T14:47:56.072Z,32.13
2019-04-01T14:50:10.764Z,34.87
2019-04-01T14:52:41.307Z,31.80
2019-04-01T14:55:10.976Z,30.93
2019-04-01T14:57:40.325Z,31.80
2019-04-01T15:03:12.037Z,35.60
2019-04-01T15:05:41.377Z,32.33
2019-04-01T15:08:10.703Z,33.10
2019-04-01T15:10:41.224Z,32.77
2019-04-01T15:13:16.607Z,30.77
2019-04-01T15:15:45.962Z,31.53
2019-04-01T15:18:16.393Z,32.90
2019-04-01T15:20:55.948Z,33.83
2019-04-01T15:23:31.136Z,34.10
2019-04-01T15:26:00.477Z,32.33
2019-04-01T15:28:30.572Z,31.10
2019-04-01T15:31:10.355Z,30.80
2019-04-01T15:33:39.687Z,29.90
2019-04-01T15:36:09.034Z,32.67
2019-04-01T15:38:38.557Z,31.57
2019-04-01T15:41:07.895Z,29.30
2019-04-01T15:43:37.278Z,30.13
2019-04-01T15:46:06.870Z,28.50
2019-04-01T15:51:49.377Z,29.00
2019-04-01T15:54:18.713Z,30.10
2019-04-01T15:56:48.060Z,28.87
2019-04-01T15:59:17.391Z,28.13
2019-04-01T16:01:46.724Z,30.17
2019-04-01T16:04:16.605Z,29.00
2019-04-01T16:06:52.575Z,29.00
2019-04-01T16:09:41.432Z,29.37
2019-04-01T16:12:10.752Z,29.47
2019-04-01T16:20:50.481Z,30.57
2019-04-01T16:23:20.048Z,29.60
2019-04-01T16:25:49.387Z,30.33
2019-04-01T16:28:18.721Z,29.23
2019-04-01T16:30:48.063Z,28.53
2019-04-01T16:33:36.787Z,30.27
2019-04-01T16:36:18.225Z,29.90
2019-04-01T16:38:47.545Z,28.53
2019-04-01T16:41:17.031Z,28.87
2019-04-01T16:43:46.692Z,29.80
2019-04-01T16:46:22.908Z,30.73
2019-04-01T16:48:52.320Z,29.70
2019-04-01T16:51:21.652Z,29.60
2019-04-01T16:54:10.334Z,33.50
2019-04-01T16:56:39.917Z,31.40
2019-04-01T16:59:09.247Z,32.20
2019-04-01T17:01:41.371Z,31.33
2019-04-01T17:04:28.704Z,32.40
2019-04-01T17:06:59.678Z,30.27
2019-04-01T17:09:48.419Z,30.50
2019-04-01T17:12:17.833Z,30.20
2019-04-01T17:14:47.164Z,31.50
2019-04-01T17:17:16.509Z,29.17
2019-04-01T17:19:50.998Z,29.97
2019-04-01T17:22:20.340Z,29.77
2019-04-01T17:24:51.304Z,29.37
2019-04-01T17:27:22.290Z,29.37
2019-04-01T17:29:51.619Z,29.60
2019-04-01T17:32:22.616Z,30.77
2019-04-01T17:38:13.720Z,30.20
2019-04-01T17:40:48.165Z,32.67
2019-04-01T17:43:19.146Z,31.03
2019-04-01T17:45:50.108Z,30.43
2019-04-01T17:48:21.091Z,32.17
2019-04-01T17:50:50.675Z,30.73
2019-04-01T17:53:22.295Z,30.70
2019-04-01T17:56:11.939Z,30.10
2019-04-01T17:58:41.570Z,31.70
2019-04-01T18:01:12.921Z,32.60
2019-04-01T18:03:44.162Z,30.97
2019-04-01T18:06:13.491Z,32.20
2019-04-01T18:08:44.474Z,32.57
2019-04-01T18:11:16.203Z,31.37
2019-04-01T18:13:52.242Z,31.17
2019-04-01T18:16:21.851Z,30.63
2019-04-01T18:18:52.930Z,33.27
2019-04-01T18:21:22.832Z,33.70
2019-04-01T18:24:11.517Z,31.27
2019-04-01T18:26:40.894Z,29.40
2019-04-01T18:29:10.337Z,30.83
2019-04-01T18:31:40.313Z,30.70
2019-04-01T18:34:10.022Z,29.67
2019-04-01T18:36:39.419Z,30.40
2019-04-01T18:39:29.951Z,31.30
2019-04-01T18:42:31.305Z,31.40
2019-04-01T18:45:00.953Z,30.47
2019-04-01T18:47:30.299Z,31.30
2019-04-01T18:50:11.828Z,29.50
2019-04-01T18:52:53.112Z,28.80
2019-04-01T18:55:34.654Z,29.13
2019-04-01T18:58:04.152Z,30.27
2019-04-01T19:00:52.849Z,27.70
2019-04-01T19:03:34.083Z,28.87
2019-04-01T19:06:15.866Z,30.40
2019-04-01T19:08:45.372Z,31.00
2019-04-01T19:11:33.853Z,29.20
2019-04-01T19:14:03.519Z,30.07
2019-04-01T19:16:52.314Z,29.07
2019-04-01T19:19:21.750Z,29.67
2019-04-01T19:22:15.995Z,31.80
2019-04-01T19:24:57.881Z,28.57
2019-04-01T19:27:39.586Z,29.67
2019-04-01T19:30:48.954Z,30.90
2019-04-01T19:33:18.560Z,29.97
2019-04-01T19:36:01.374Z,30.47
2019-04-01T19:38:30.974Z,29.23
2019-04-01T19:41:00.420Z,29.43
2019-04-01T19:43:29.846Z,30.73
2019-04-01T19:45:59.556Z,29.60
2019-04-01T19:48:28.954Z,31.93
2019-04-01T19:50:59.350Z,31.50
2019-04-01T19:53:48.480Z,29.73
2019-04-01T19:56:37.227Z,31.50
2019-04-01T19:59:06.588Z,30.40
2019-04-01T20:01:55.424Z,31.23
2019-04-01T20:04:36.565Z,30.77
2019-04-01T20:07:06.033Z,31.53
2019-04-01T20:09:35.459Z,31.40
2019-04-01T20:12:04.913Z,29.80
2019-04-01T20:14:34.260Z,30.57
2019-04-01T20:17:03.978Z,28.77
2019-04-01T20:19:34.101Z,30.90
2019-04-01T20:22:29.096Z,30.90
2019-04-01T20:25:44.070Z,31.70
2019-04-01T20:28:13.635Z,30.60
2019-04-01T20:31:03.626Z,32.07
2019-04-01T20:33:32.959Z,33.07
2019-04-01T20:36:02.367Z,32.50
2019-04-01T20:38:31.707Z,33.87
2019-04-01T20:41:12.956Z,36.13
2019-04-01T20:43:54.352Z,38.47
2019-04-01T20:49:21.584Z,37.03
2019-04-01T20:51:50.915Z,37.77
2019-04-01T20:54:20.258Z,37.50
2019-04-01T20:56:49.587Z,37.60
2019-04-01T20:59:18.931Z,38.17
2019-04-01T21:01:48.331Z,38.80
2019-04-01T21:04:17.663Z,40.23
2019-04-01T21:06:47.003Z,39.67
2019-04-01T21:09:28.930Z,37.33
2019-04-01T21:11:58.310Z,39.73
2019-04-01T21:14:27.645Z,37.80
2019-04-01T21:16:57.265Z,35.87
2019-04-01T21:19:45.938Z,38.00
2019-04-01T21:22:15.275Z,40.40
2019-04-01T21:24:44.609Z,40.07
2019-04-01T21:27:13.970Z,41.03
2019-04-01T21:29:43.301Z,40.03
2019-04-01T21:32:12.641Z,39.87
2019-04-01T21:34:41.999Z,36.40
2019-04-01T21:37:30.920Z,39.77
2019-04-01T21:40:00.806Z,42.83
2019-04-01T21:42:30.195Z,41.50
2019-04-01T21:44:59.526Z,41.97
2019-04-01T21:47:28.870Z,42.10
2019-04-01T21:49:58.216Z,39.60
2019-04-01T21:52:27.542Z,38.97
2019-04-01T21:54:57.078Z,42.63
2019-04-01T21:57:47.008Z,40.97
2019-04-01T22:03:31.171Z,40.63
2019-04-01T22:06:00.503Z,41.03
2019-04-01T22:08:29.909Z,42.83
2019-04-01T22:11:39.158Z,41.67
2019-04-01T22:14:08.513Z,39.00
2019-04-01T22:16:37.852Z,40.67
2019-04-01T22:19:07.203Z,44.30
2019-04-01T22:21:36.542Z,43.63
2019-04-01T22:24:05.944Z,41.90
2019-04-01T22:26:35.283Z,43.97
2019-04-01T22:29:09.847Z,41.20
2019-04-01T22:31:39.186Z,41.63
2019-04-01T22:34:09.180Z,44.00
2019-04-01T22:36:45.216Z,44.03
2019-04-01T22:39:26.295Z,43.33
2019-04-01T22:42:04.692Z,42.77
2019-04-01T22:44:53.339Z,44.10
2019-04-01T22:47:24.344Z,42.87
2019-04-01T22:49:59.187Z,43.40
2019-04-01T22:52:28.531Z,41.93
2019-04-01T22:54:58.268Z,44.50
2019-04-01T22:57:34.022Z,43.67
2019-04-01T23:03:17.723Z,42.60
2019-04-01T23:05:47.065Z,44.43
2019-04-01T23:08:16.413Z,46.70
2019-04-01T23:10:45.743Z,43.00
2019-04-01T23:13:15.088Z,44.80
2019-04-01T23:15:44.478Z,43.50
2019-04-01T23:18:13.758Z,43.00
2019-04-01T23:20:43.100Z,47.40
2019-04-01T23:23:12.432Z,44.27
2019-04-01T23:25:41.778Z,45.23
2019-04-01T23:28:11.373Z,44.43
2019-04-01T23:30:40.709Z,43.13
2019-04-01T23:33:10.041Z,46.30
2019-04-01T23:35:39.393Z,45.27
2019-04-01T23:38:08.725Z,46.50
2019-04-01T23:40:38.064Z,45.40
2019-04-01T23:43:07.396Z,47.37
2019-04-01T23:45:36.739Z,45.93
2019-04-01T23:48:06.070Z,47.50
2019-04-01T23:50:42.555Z,45.63
2019-04-01T23:53:11.883Z,44.33
2019-04-01T23:55:41.225Z,44.87
2019-04-01T23:58:29.898Z,47.70
